Time;durP1;ratioP1;P1;durP2;ratioP2;P2;SDS_P1;SDS_P2;PMS_P1;PMS_P2;Temp;Humidity;BMP_temperature;BMP_pressure;BME280_temperature;BME280_humidity;BME280_pressure;Samples;Min_cycle;Max_cycle;Signal;HPM_P1;HPM_P2
2023/01/23 00:01:07;;;;;;;47.25;27.65;;;;;;;1.98;80.21;102763.31;5059923;28;20057;-67
2023/01/23 00:03:34;;;;;;;48.88;27.88;;;;;;;2.22;79.93;102764.56;5084047;28;20049;-67
2023/01/23 00:06:07;;;;;;;48.15;28.17;;;;;;;2.22;79.34;102770.84;5065865;28;20053;-67
2023/01/23 00:08:35;;;;;;;48.10;28.52;;;;;;;2.27;79.01;102771.06;5065502;28;20056;-67
2023/01/23 00:11:07;;;;;;;49.65;27.55;;;;;;;2.33;78.79;102777.53;5077891;28;20148;-68
2023/01/23 00:13:35;;;;;;;50.95;29.52;;;;;;;2.27;79.48;102762.91;5070720;28;20488;-67
2023/01/23 00:16:11;;;;;;;46.65;28.02;;;;;;;2.56;78.56;102764.38;5072046;28;20064;-67
2023/01/23 00:18:38;;;;;;;50.45;29.38;;;;;;;2.33;78.90;102763.94;5066829;28;20051;-68
2023/01/23 00:21:07;;;;;;;50.08;28.40;;;;;;;2.30;78.49;102770.63;5077518;28;20056;-68
2023/01/23 00:23:35;;;;;;;50.78;29.95;;;;;;;2.23;78.95;102764.34;5076830;28;20048;-69
2023/01/23 00:26:04;;;;;;;49.75;28.33;;;;;;;2.23;79.42;102774.41;5077836;28;20044;-69
2023/01/23 00:28:32;;;;;;;51.95;29.50;;;;;;;1.96;79.71;102769.97;5057590;28;20519;-68
2023/01/23 00:31:04;;;;;;;48.58;28.55;;;;;;;1.86;81.50;102773.09;5045889;28;20055;-68
2023/01/23 00:33:32;;;;;;;49.83;28.38;;;;;;;2.06;80.19;102770.41;5074621;28;20059;-70
2023/01/23 00:36:00;;;;;;;48.55;27.60;;;;;;;2.03;80.24;102763.50;5076220;28;20056;-69
2023/01/23 00:38:27;;;;;;;51.03;28.33;;;;;;;2.19;79.63;102774.00;5057966;28;20049;-69
2023/01/23 00:40:55;;;;;;;50.15;28.77;;;;;;;2.32;79.48;102770.41;5076156;28;20047;-70
2023/01/23 00:43:23;;;;;;;48.22;28.40;;;;;;;2.26;78.94;102776.72;5077649;28;20064;-69
2023/01/23 00:45:51;;;;;;;51.13;28.95;;;;;;;1.95;80.39;102771.84;5076429;28;20047;-69
2023/01/23 00:48:18;;;;;;;47.25;28.40;;;;;;;1.97;80.66;102779.81;5075596;28;20057;-69
2023/01/23 00:50:46;;;;;;;50.15;29.92;;;;;;;1.99;80.72;102770.41;5077034;28;20045;-68
2023/01/23 00:53:13;;;;;;;50.55;29.23;;;;;;;2.18;80.71;102774.16;5077795;28;20056;-68
2023/01/23 00:55:41;;;;;;;49.38;28.88;;;;;;;2.12;80.19;102770.44;5075917;28;20048;-69
2023/01/23 00:58:08;;;;;;;46.58;27.65;;;;;;;2.04;80.06;102778.75;5077983;28;20048;-69
2023/01/23 01:00:37;;;;;;;54.97;29.98;;;;;;;2.12;80.41;102773.16;5076931;28;20044;-68
2023/01/23 01:03:05;;;;;;;46.53;27.48;;;;;;;2.30;79.58;102773.34;5056738;28;20044;-69
2023/01/23 01:05:34;;;;;;;50.70;29.20;;;;;;;2.41;79.05;102766.44;5062192;28;20061;-69
2023/01/23 01:08:03;;;;;;;48.58;28.48;;;;;;;2.07;79.74;102777.53;5071142;28;20046;-69
2023/01/23 01:10:31;;;;;;;48.15;27.80;;;;;;;2.20;80.07;102774.81;5058835;28;20064;-69
2023/01/23 01:13:01;;;;;;;50.55;28.65;;;;;;;2.02;80.62;102769.16;5077604;28;20046;-68
2023/01/23 01:15:29;;;;;;;51.13;29.42;;;;;;;2.11;80.17;102770.63;5059340;28;20048;-69
2023/01/23 01:17:57;;;;;;;54.95;29.63;;;;;;;1.70;81.54;102769.91;5076311;28;20049;-69
2023/01/23 01:20:26;;;;;;;49.33;28.50;;;;;;;1.86;81.51;102772.25;5058853;28;20059;-69
2023/01/23 01:22:56;;;;;;;48.92;29.88;;;;;;;1.95;81.12;102766.41;5075479;28;20132;-69
2023/01/23 01:25:23;;;;;;;52.95;30.02;;;;;;;2.07;81.08;102766.66;5076851;28;20040;-68
2023/01/23 01:27:54;;;;;;;52.90;29.25;;;;;;;2.37;80.18;102765.22;5059758;28;20052;-68
2023/01/23 01:30:24;;;;;;;47.83;28.48;;;;;;;2.20;79.63;102770.22;5075068;28;20052;-68
2023/01/23 01:32:52;;;;;;;49.30;28.65;;;;;;;2.14;80.05;102781.91;5075934;28;20048;-68
2023/01/23 01:35:20;;;;;;;48.45;29.17;;;;;;;2.28;79.43;102764.56;5076714;28;20609;-69
2023/01/23 01:37:48;;;;;;;52.70;30.30;;;;;;;2.38;79.68;102752.44;5070246;28;20057;-68
2023/01/23 01:40:24;;;;;;;52.08;30.98;;;;;;;2.49;78.96;102749.94;5054874;28;20048;-69
2023/01/23 01:42:54;;;;;;;49.78;28.48;;;;;;;2.16;79.16;102763.50;5056900;28;20053;-68
2023/01/23 01:45:58;;;;;;;54.67;31.58;;;;;;;2.18;80.30;102766.03;5039218;28;20052;-68
2023/01/23 01:48:30;;;;;;;51.50;28.58;;;;;;;2.25;79.74;102751.38;5075184;28;20044;-68
2023/01/23 01:50:58;;;;;;;53.25;28.38;;;;;;;2.16;79.87;102754.53;5075961;28;20049;-69
2023/01/23 01:53:27;;;;;;;49.83;29.30;;;;;;;2.14;80.40;102748.47;5075203;28;20411;-69
2023/01/23 01:55:56;;;;;;;51.87;29.73;;;;;;;2.08;80.85;102750.13;5075171;28;20515;-69
2023/01/23 01:58:25;;;;;;;48.58;29.27;;;;;;;2.15;80.71;102747.41;5075431;28;20295;-68
2023/01/23 02:00:53;;;;;;;51.38;29.17;;;;;;;2.05;80.86;102745.13;5074503;28;20040;-68
2023/01/23 02:03:20;;;;;;;55.35;30.40;;;;;;;2.14;80.66;102749.28;5041988;28;20131;-68
2023/01/23 02:05:48;;;;;;;51.17;29.50;;;;;;;2.09;80.76;102746.34;5074243;28;20049;-68
2023/01/23 02:08:36;;;;;;;49.17;28.42;;;;;;;1.78;81.80;102746.13;5074894;28;20044;-68
2023/01/23 02:11:05;;;;;;;50.08;29.25;;;;;;;2.11;81.27;102755.16;5056859;28;20053;-69
2023/01/23 02:13:38;;;;;;;47.58;29.45;;;;;;;1.86;81.75;102740.50;5069259;28;20059;-69
2023/01/23 02:16:12;;;;;;;54.30;30.48;;;;;;;2.10;80.87;102742.63;5074527;28;20055;-69
2023/01/23 02:18:47;;;;;;;49.70;28.27;;;;;;;2.11;80.61;102743.47;5075087;28;20048;-68
2023/01/23 02:21:19;;;;;;;49.88;28.67;;;;;;;2.16;80.64;102736.31;5057682;28;20076;-69
2023/01/23 02:24:00;;;;;;;50.15;29.70;;;;;;;2.25;80.66;102731.50;5058272;28;20072;-69
2023/01/23 02:26:31;;;;;;;47.33;27.60;;;;;;;2.05;80.79;102745.13;5038140;28;20048;-69
2023/01/23 02:28:59;;;;;;;51.28;28.13;;;;;;;1.88;80.84;102746.53;5053996;28;20408;-69
2023/01/23 02:31:31;;;;;;;52.08;30.02;;;;;;;1.82;82.11;102749.25;5063447;28;20385;-69
2023/01/23 02:33:59;;;;;;;50.03;27.83;;;;;;;1.97;82.01;102739.06;5071432;28;20412;-69
2023/01/23 02:36:29;;;;;;;50.90;29.00;;;;;;;2.30;81.05;102737.19;5070535;28;20048;-69
2023/01/23 02:39:09;;;;;;;50.65;28.35;;;;;;;2.37;79.80;102731.75;5054501;28;20053;-69
2023/01/23 02:41:43;;;;;;;49.05;28.48;;;;;;;2.37;79.77;102734.47;5054034;28;20063;-69
2023/01/23 02:44:16;;;;;;;48.90;28.70;;;;;;;2.24;79.39;102738.84;5074203;28;20059;-69
2023/01/23 02:46:50;;;;;;;52.15;29.95;;;;;;;2.15;80.55;102739.25;5058481;28;20041;-65
2023/01/23 02:49:17;;;;;;;50.17;29.00;;;;;;;2.19;80.69;102744.09;5064955;28;20055;-65
2023/01/23 02:51:45;;;;;;;50.38;29.38;;;;;;;2.29;80.43;102746.38;5066831;28;20414;-65
2023/01/23 02:54:12;;;;;;;49.53;28.25;;;;;;;2.55;79.73;102751.78;5057787;28;20049;-64
2023/01/23 02:56:41;;;;;;;49.83;29.20;;;;;;;2.30;79.29;102765.19;5072979;28;20044;-64
2023/01/23 03:01:54;;;;;;;52.80;29.73;;;;;;;1.98;81.79;102766.03;5059486;28;20075;-64
2023/01/23 03:04:22;;;;;;;52.05;28.80;;;;;;;1.99;81.40;102762.25;5057813;28;20044;-65
2023/01/23 03:06:50;;;;;;;53.50;30.75;;;;;;;2.31;81.32;102757.88;5056394;28;20052;-65
2023/01/23 03:09:18;;;;;;;54.50;28.52;;;;;;;2.32;80.45;102751.38;5040382;28;20067;-65
2023/01/23 03:11:46;;;;;;;52.47;30.63;;;;;;;2.16;80.51;102766.22;5056498;28;20060;-64
2023/01/23 03:14:16;;;;;;;52.08;29.23;;;;;;;2.11;80.72;102757.88;5067994;28;20048;-64
2023/01/23 03:16:50;;;;;;;52.35;29.23;;;;;;;1.91;81.55;102761.63;5046294;28;20045;-65
2023/01/23 03:19:21;;;;;;;49.63;29.40;;;;;;;1.61;82.88;102760.28;5054202;28;20059;-65
2023/01/23 03:21:50;;;;;;;53.40;30.25;;;;;;;1.64;83.41;102751.75;5067177;28;20053;-65
2023/01/23 03:24:18;;;;;;;56.08;32.08;;;;;;;1.73;83.58;102755.91;5057222;28;20091;-65
2023/01/23 03:26:47;;;;;;;49.95;28.40;;;;;;;1.69;83.02;102770.97;5070140;28;20041;-65
2023/01/23 03:32:05;;;;;;;53.90;29.17;;;;;;;1.80;83.19;102756.78;5071656;28;20052;-65
2023/01/23 03:34:34;;;;;;;48.85;28.40;;;;;;;1.91;82.62;102757.03;5074046;28;20053;-65
2023/01/23 03:37:02;;;;;;;52.90;30.17;;;;;;;2.04;82.40;102756.22;5057136;28;20048;-65
2023/01/23 03:42:19;;;;;;;48.13;27.80;;;;;;;1.89;82.55;102760.97;5059059;28;20052;-63
2023/01/23 03:44:48;;;;;;;51.25;29.30;;;;;;;1.91;83.13;102753.47;5074096;28;20057;-63
2023/01/23 03:47:15;;;;;;;53.85;30.90;;;;;;;2.01;82.93;102754.72;5070963;28;20056;-64
2023/01/23 03:49:43;;;;;;;51.38;29.42;;;;;;;2.03;82.60;102760.78;5057435;28;20048;-63
2023/01/23 03:52:10;;;;;;;52.15;30.08;;;;;;;2.16;81.81;102762.69;5056578;28;20411;-64
2023/01/23 03:54:38;;;;;;;53.03;30.58;;;;;;;1.86;82.36;102753.25;5056655;28;20057;-63
2023/01/23 03:57:08;;;;;;;49.15;28.38;;;;;;;1.86;82.72;102753.25;5057133;28;20048;-65
2023/01/23 04:00:03;;;;;;;53.50;28.65;;;;;;;1.84;82.96;102750.75;5080105;28;20061;-65
2023/01/23 04:03:02;;;;;;;50.42;29.15;;;;;;;2.09;82.57;102746.34;5056561;28;20408;-64
2023/01/23 04:05:30;;;;;;;52.17;30.00;;;;;;;2.06;82.33;102741.34;5041455;28;20071;-66
2023/01/23 04:07:59;;;;;;;50.10;29.30;;;;;;;2.17;82.04;102754.34;5073134;28;20052;-64
2023/01/23 04:10:27;;;;;;;49.35;27.98;;;;;;;2.36;81.31;102746.38;5074539;28;20064;-65
2023/01/23 04:13:02;;;;;;;50.80;29.20;;;;;;;2.16;81.38;102740.94;5073253;28;20476;-65
2023/01/23 04:15:33;;;;;;;49.75;28.23;;;;;;;2.07;81.59;102742.19;5055284;28;20063;-64
2023/01/23 04:18:03;;;;;;;46.65;27.65;;;;;;;2.22;81.46;102746.38;5070556;28;20041;-65
2023/01/23 04:20:31;;;;;;;50.00;28.23;;;;;;;2.01;81.57;102753.88;5039743;28;20063;-64
2023/01/23 04:22:59;;;;;;;50.58;28.55;;;;;;;2.01;81.58;102756.59;5074302;28;20052;-65
2023/01/23 04:25:28;;;;;;;46.90;27.98;;;;;;;2.21;81.70;102749.31;5070539;28;20045;-64
2023/01/23 04:27:55;;;;;;;47.53;27.98;;;;;;;2.11;81.63;102757.06;5057105;28;20051;-64
2023/01/23 04:30:23;;;;;;;53.90;30.75;;;;;;;2.17;81.68;102765.19;5074366;28;20056;-65
2023/01/23 04:32:51;;;;;;;49.95;28.75;;;;;;;2.07;81.49;102761.22;5073232;28;20056;-65
2023/01/23 04:35:19;;;;;;;50.60;27.83;;;;;;;2.09;81.61;102761.84;5056601;28;20059;-64
2023/01/23 04:37:47;;;;;;;52.72;29.58;;;;;;;1.94;82.35;102763.91;5057199;28;20044;-65
2023/01/23 04:40:14;;;;;;;48.10;27.80;;;;;;;2.16;82.35;102774.38;5047958;28;20072;-65
2023/01/23 04:42:50;;;;;;;46.53;27.80;;;;;;;2.13;82.11;102769.38;5073437;28;20052;-65
2023/01/23 04:45:35;;;;;;;50.63;28.83;;;;;;;2.10;82.17;102764.34;5059665;28;20048;-65
2023/01/23 04:48:24;;;;;;;47.33;27.20;;;;;;;2.09;81.53;102767.28;5077355;28;20067;-65
2023/01/23 04:50:52;;;;;;;55.33;28.88;;;;;;;2.03;82.01;102770.81;5076766;28;20127;-64
2023/01/23 04:53:19;;;;;;;53.30;30.38;;;;;;;2.32;81.41;102764.16;5071212;28;20045;-65
2023/01/23 04:55:54;;;;;;;49.85;28.85;;;;;;;2.42;81.11;102768.13;5062300;28;20419;-65
2023/01/23 04:58:22;;;;;;;51.55;27.63;;;;;;;2.00;81.74;102774.81;5076965;28;20066;-65
2023/01/23 05:00:49;;;;;;;49.05;29.20;;;;;;;1.94;82.35;102769.34;5059803;28;20051;-65
2023/01/23 05:03:23;;;;;;;53.90;28.88;;;;;;;1.91;83.61;102769.75;5076275;28;20052;-64
2023/01/23 05:05:51;;;;;;;54.60;29.88;;;;;;;1.89;83.67;102769.13;5075910;28;20078;-64
2023/01/23 05:08:18;;;;;;;52.92;29.33;;;;;;;1.95;83.65;102769.13;5071984;28;20383;-64
2023/01/23 05:10:53;;;;;;;51.97;29.17;;;;;;;1.96;83.52;102773.53;5076107;28;20060;-64
2023/01/23 05:13:21;;;;;;;60.55;31.85;;;;;;;2.11;83.63;102763.31;5076060;28;20052;-65
2023/01/23 05:15:48;;;;;;;52.33;28.23;;;;;;;2.22;82.29;102768.13;5075919;28;20048;-64
2023/01/23 05:18:16;;;;;;;51.78;29.80;;;;;;;2.02;82.48;102778.13;5059127;28;20048;-65
2023/01/23 05:20:45;;;;;;;53.60;31.33;;;;;;;2.07;83.11;102777.53;5075935;28;20408;-64
2023/01/23 05:23:12;;;;;;;53.60;29.48;;;;;;;2.00;82.93;102773.97;5063557;28;20049;-65
2023/01/23 05:25:46;;;;;;;58.13;31.52;;;;;;;2.01;83.48;102784.63;5043254;28;20060;-64
2023/01/23 05:28:13;;;;;;;58.03;30.80;;;;;;;1.90;83.32;102787.13;5076233;28;20040;-64
2023/01/23 05:30:46;;;;;;;50.38;28.98;;;;;;;2.06;83.52;102787.56;5075810;28;20055;-64
2023/01/23 05:33:23;;;;;;;52.38;28.73;;;;;;;2.02;83.25;102788.19;5075650;28;20064;-65
2023/01/23 05:35:51;;;;;;;52.35;29.23;;;;;;;1.78;84.27;102786.06;5077084;28;20041;-65
2023/01/23 05:38:19;;;;;;;54.65;30.30;;;;;;;1.95;84.21;102790.88;5074934;28;20040;-65
2023/01/23 05:40:46;;;;;;;56.35;29.55;;;;;;;2.38;83.06;102799.50;5075167;28;20487;-64
2023/01/23 05:43:14;;;;;;;56.08;31.95;;;;;;;2.15;82.72;102807.22;5076009;28;20395;-65
2023/01/23 05:46:14;;;;;;;54.05;29.70;;;;;;;1.93;83.73;102794.84;5075861;28;20408;-64
2023/01/23 05:48:50;;;;;;;54.97;31.02;;;;;;;2.26;83.22;102798.44;5075960;28;20052;-65
2023/01/23 05:51:19;;;;;;;57.25;29.55;;;;;;;2.09;83.06;102803.44;5059008;28;20053;-65
2023/01/23 05:53:47;;;;;;;53.58;29.75;;;;;;;2.37;82.73;102806.00;5070444;28;20525;-65
2023/01/23 05:56:16;;;;;;;56.95;31.15;;;;;;;2.09;82.30;102817.03;5058696;28;20044;-65
2023/01/23 05:59:04;;;;;;;52.63;26.65;;;;;;;1.95;83.24;102806.34;5076128;28;20518;-65
2023/01/23 06:01:46;;;;;;;55.15;29.52;;;;;;;1.89;83.31;102818.88;5057279;28;20050;-66
2023/01/23 06:04:32;;;;;;;52.20;29.45;;;;;;;2.03;83.65;102817.03;5076553;28;20048;-65
2023/01/23 06:07:19;;;;;;;56.15;27.70;;;;;;;2.15;83.04;102807.22;5060671;28;20056;-66
2023/01/23 06:09:50;;;;;;;55.30;30.35;;;;;;;2.28;82.87;102804.53;5043283;28;20063;-68
2023/01/23 06:12:18;;;;;;;51.78;28.13;;;;;;;2.05;82.32;102831.25;5058142;28;20078;-69
2023/01/23 06:14:46;;;;;;;49.40;26.55;;;;;;;2.15;82.64;102827.09;5076555;28;20652;-68
2023/01/23 06:17:13;;;;;;;51.15;27.60;;;;;;;1.95;82.70;102820.75;5071940;28;20063;-69
2023/01/23 06:19:41;;;;;;;49.70;27.30;;;;;;;2.04;82.83;102822.25;5058696;28;20049;-68
2023/01/23 06:22:10;;;;;;;55.22;28.42;;;;;;;2.10;82.82;102823.31;5073906;28;20059;-68
2023/01/23 06:24:55;;;;;;;46.72;25.25;;;;;;;2.31;81.47;102836.72;5057202;28;20071;-69
2023/01/23 06:27:23;;;;;;;54.33;27.02;;;;;;;2.33;81.18;102833.78;5074442;28;20052;-69
2023/01/23 06:29:51;;;;;;;52.72;27.67;;;;;;;2.27;81.65;102832.75;5075007;28;20052;-69
2023/01/23 06:32:19;;;;;;;46.95;25.95;;;;;;;2.30;81.27;102835.06;5041033;28;20073;-69
2023/01/23 06:34:48;;;;;;;49.25;26.13;;;;;;;2.09;81.50;102841.50;5055189;28;20420;-69
2023/01/23 06:37:15;;;;;;;47.85;26.38;;;;;;;2.34;81.20;102839.03;5067419;28;20484;-70
2023/01/23 06:39:44;;;;;;;44.95;23.75;;;;;;;1.90;81.38;102831.41;5059356;28;20060;-69
2023/01/23 06:42:12;;;;;;;46.22;25.42;;;;;;;2.02;82.26;102837.91;5070300;28;20052;-69
2023/01/23 06:44:44;;;;;;;45.97;26.25;;;;;;;2.33;81.00;102828.38;5069533;28;20523;-71
2023/01/23 06:47:14;;;;;;;43.40;23.17;;;;;;;2.25;80.50;102835.66;5069143;28;20041;-68
2023/01/23 06:49:44;;;;;;;48.20;23.35;;;;;;;2.02;80.58;102826.22;5065958;28;22018;-69
2023/01/23 06:52:11;;;;;;;47.80;24.70;;;;;;;2.13;80.52;102833.75;5075703;28;20056;-69
2023/01/23 06:54:42;;;;;;;43.08;23.67;;;;;;;1.86;81.06;102834.75;5059321;28;20048;-68
2023/01/23 06:57:11;;;;;;;44.10;22.60;;;;;;;1.94;81.41;102829.13;5072963;28;20048;-68
2023/01/23 06:59:39;;;;;;;45.83;24.98;;;;;;;2.09;81.36;102830.63;5044862;28;20060;-68
2023/01/23 07:02:12;;;;;;;50.03;24.92;;;;;;;2.03;81.08;102823.31;5076286;28;20051;-69
2023/01/23 07:04:50;;;;;;;48.50;24.55;;;;;;;2.17;80.83;102835.88;5073670;28;20040;-69
2023/01/23 07:07:18;;;;;;;44.33;23.58;;;;;;;2.01;80.98;102822.66;5057755;28;20399;-69
2023/01/23 07:09:47;;;;;;;52.03;25.45;;;;;;;2.32;80.46;102819.34;5035367;28;20053;-69
2023/01/23 07:12:21;;;;;;;48.90;24.63;;;;;;;2.26;80.45;102829.22;5060953;28;20049;-69
2023/01/23 07:14:49;;;;;;;45.53;25.02;;;;;;;2.24;80.10;102823.13;5023199;28;20052;-68
2023/01/23 07:17:21;;;;;;;54.55;26.63;;;;;;;2.24;80.85;102831.28;5062571;28;20079;-70
2023/01/23 07:19:50;;;;;;;52.92;25.27;;;;;;;2.18;80.57;102821.22;5060309;28;20052;-68
2023/01/23 07:22:19;;;;;;;50.83;25.33;;;;;;;2.21;80.66;102826.25;5055251;28;20052;-68
2023/01/23 07:24:47;;;;;;;48.25;24.80;;;;;;;1.99;81.61;102822.03;5059801;28;20056;-69
2023/01/23 07:27:15;;;;;;;52.80;25.55;;;;;;;2.13;81.75;102826.44;5064531;28;20045;-69
2023/01/23 07:29:42;;;;;;;49.67;25.88;;;;;;;2.29;81.22;102833.38;5063955;28;20693;-68
2023/01/23 07:32:09;;;;;;;52.15;25.75;;;;;;;2.39;80.34;102825.63;5053479;28;20040;-68
2023/01/23 07:34:37;;;;;;;52.03;26.67;;;;;;;2.47;79.56;102833.63;5062976;28;20052;-68
2023/01/23 07:37:04;;;;;;;67.40;27.48;;;;;;;2.37;80.08;102841.34;5064100;28;20499;-67
2023/01/23 07:39:32;;;;;;;62.70;27.50;;;;;;;2.55;81.17;102843.44;5065168;28;20079;-67
2023/01/23 07:42:00;;;;;;;49.97;26.48;;;;;;;2.12;80.50;102846.53;5063644;28;20395;-66
2023/01/23 07:44:28;;;;;;;48.70;25.88;;;;;;;2.14;80.65;102840.91;5061049;28;20049;-68
2023/01/23 07:46:55;;;;;;;55.13;26.33;;;;;;;2.17;81.57;102835.88;5058227;28;20045;-67
2023/01/23 07:49:23;;;;;;;48.53;24.73;;;;;;;2.43;80.42;102828.78;5053258;28;20037;-67
2023/01/23 07:51:50;;;;;;;50.63;25.42;;;;;;;2.56;79.89;102834.25;5058653;28;20407;-69
2023/01/23 07:54:17;;;;;;;48.10;25.88;;;;;;;2.54;79.29;102844.50;5056419;28;20380;-69
2023/01/23 07:56:49;;;;;;;53.75;28.10;;;;;;;2.28;80.52;102850.75;5060751;28;20037;-65
2023/01/23 07:59:16;;;;;;;56.67;28.95;;;;;;;2.38;80.19;102853.03;5055458;28;20056;-66
2023/01/23 08:01:43;;;;;;;53.85;27.63;;;;;;;2.11;81.59;102855.72;5061657;28;20045;-70
2023/01/23 08:04:11;;;;;;;51.38;26.83;;;;;;;2.30;80.93;102848.66;5056368;28;20060;-64
2023/01/23 08:06:38;;;;;;;47.60;26.05;;;;;;;2.31;79.96;102850.31;5060407;28;20057;-65
2023/01/23 08:09:06;;;;;;;46.03;25.92;;;;;;;2.05;80.97;102853.84;5071135;28;20064;-68
2023/01/23 08:11:33;;;;;;;47.20;26.23;;;;;;;2.14;80.79;102839.00;5054741;28;20048;-68
2023/01/23 08:14:01;;;;;;;46.85;26.20;;;;;;;2.39;80.28;102857.47;5052269;28;20049;-67
2023/01/23 08:16:28;;;;;;;45.25;23.58;;;;;;;2.36;79.59;102841.53;5057195;28;20155;-65
2023/01/23 08:18:55;;;;;;;44.55;23.67;;;;;;;2.37;79.23;102846.78;5067546;28;20049;-70
2023/01/23 08:21:23;;;;;;;50.22;26.35;;;;;;;2.42;79.50;102847.00;5070438;28;20052;-68
2023/01/23 08:23:51;;;;;;;46.28;25.77;;;;;;;2.48;79.80;102846.16;5061785;28;20099;-69
2023/01/23 08:26:18;;;;;;;46.88;25.58;;;;;;;2.65;79.38;102852.03;5064599;28;20055;-67
2023/01/23 08:28:45;;;;;;;52.50;25.95;;;;;;;2.85;78.50;102845.53;5061472;28;20036;-69
2023/01/23 08:31:14;;;;;;;48.05;26.60;;;;;;;2.89;77.93;102838.63;5057642;28;20057;-67
2023/01/23 08:33:41;;;;;;;54.05;26.63;;;;;;;3.09;77.64;102836.69;5059469;28;20751;-66
2023/01/23 08:36:14;;;;;;;52.95;26.77;;;;;;;2.49;78.52;102847.00;5067121;28;20055;-67
2023/01/23 08:38:41;;;;;;;49.95;26.17;;;;;;;2.66;79.16;102842.81;5066966;28;20052;-68
2023/01/23 08:41:10;;;;;;;54.45;26.17;;;;;;;2.37;79.58;102859.53;5067779;28;20049;-66
2023/01/23 08:43:40;;;;;;;50.30;27.63;;;;;;;2.45;79.97;102856.63;5074391;28;20420;-65
2023/01/23 08:46:08;;;;;;;52.58;28.55;;;;;;;2.35;79.90;102848.88;5060021;28;20055;-66
2023/01/23 08:48:35;;;;;;;51.78;27.70;;;;;;;2.34;80.72;102849.91;5065379;28;20041;-64
2023/01/23 08:51:05;;;;;;;49.65;26.75;;;;;;;2.60;79.94;102846.38;5062734;28;20053;-64
2023/01/23 08:53:33;;;;;;;51.20;26.27;;;;;;;2.44;79.86;102846.78;5055641;28;20044;-64
2023/01/23 08:56:05;;;;;;;51.80;27.77;;;;;;;2.65;79.95;102841.97;5049065;28;20258;-65
2023/01/23 08:58:33;;;;;;;48.97;28.25;;;;;;;2.59;79.56;102840.09;5058701;28;20037;-64
2023/01/23 09:01:01;;;;;;;55.55;28.67;;;;;;;2.39;80.61;102838.41;5063910;28;20049;-65
2023/01/23 09:03:28;;;;;;;54.28;28.63;;;;;;;2.80;79.96;102830.88;5044859;28;20044;-65
2023/01/23 09:06:00;;;;;;;48.97;26.98;;;;;;;2.79;78.73;102835.47;5055166;28;20063;-64
2023/01/23 09:08:27;;;;;;;50.17;28.45;;;;;;;2.60;79.25;102838.22;5075968;28;20037;-66
2023/01/23 09:11:06;;;;;;;51.17;26.60;;;;;;;2.69;79.27;102848.69;5066931;28;20040;-63
2023/01/23 09:13:33;;;;;;;53.45;27.95;;;;;;;2.65;79.47;102841.16;5062464;28;20053;-64
2023/01/23 09:16:00;;;;;;;53.35;25.65;;;;;;;2.76;79.23;102846.78;5060139;28;20079;-64
2023/01/23 09:18:28;;;;;;;51.05;27.30;;;;;;;2.87;78.44;102838.00;5058514;28;20048;-65
2023/01/23 09:20:55;;;;;;;51.22;27.30;;;;;;;2.77;78.76;102851.16;5066102;28;20040;-65
2023/01/23 09:23:23;;;;;;;49.10;27.45;;;;;;;2.59;79.55;102855.56;5055242;28;20053;-65
2023/01/23 09:25:50;;;;;;;48.38;27.02;;;;;;;2.50;80.25;102852.22;5065207;28;20045;-66
2023/01/23 09:28:18;;;;;;;49.50;27.08;;;;;;;2.92;78.76;102851.81;5051547;28;20048;-66
2023/01/23 09:30:45;;;;;;;50.30;26.30;;;;;;;2.60;79.16;102860.00;5067420;28;20399;-65
2023/01/23 09:33:13;;;;;;;53.47;27.92;;;;;;;2.43;80.12;102864.13;5038750;28;20047;-65
2023/01/23 09:35:40;;;;;;;51.65;27.50;;;;;;;2.54;79.66;102861.66;5059381;28;20044;-65
2023/01/23 09:38:08;;;;;;;48.20;25.52;;;;;;;2.70;79.35;102874.00;5071556;28;20087;-66
2023/01/23 09:40:49;;;;;;;45.58;23.77;;;;;;;2.62;78.86;102877.75;5067713;28;20055;-65
2023/01/23 09:43:31;;;;;;;45.33;24.92;;;;;;;2.62;78.79;102885.91;5062619;28;20052;-64
2023/01/23 09:46:10;;;;;;;51.35;25.67;;;;;;;2.53;79.55;102892.59;5058191;28;20411;-64
2023/01/23 09:48:46;;;;;;;45.60;25.27;;;;;;;2.69;79.26;102884.03;5056579;28;20535;-63
2023/01/23 09:51:19;;;;;;;50.63;26.20;;;;;;;2.73;78.64;102889.91;5062420;28;20081;-65
2023/01/23 09:53:47;;;;;;;56.30;25.05;;;;;;;2.64;78.24;102893.88;5056511;28;20057;-64
2023/01/23 09:56:20;;;;;;;45.13;24.60;;;;;;;2.61;79.03;102897.88;5064185;28;20045;-64
2023/01/23 09:59:02;;;;;;;45.58;24.98;;;;;;;2.53;78.44;102894.50;5056401;28;20064;-64
2023/01/23 10:01:30;;;;;;;45.63;23.88;;;;;;;2.41;78.95;102901.59;5059590;28;20044;-64
2023/01/23 10:03:59;;;;;;;50.42;25.38;;;;;;;2.62;78.93;102904.13;5055862;28;20052;-65
2023/01/23 10:06:29;;;;;;;49.42;26.58;;;;;;;2.60;79.21;102914.41;5071831;28;20503;-64
2023/01/23 10:09:15;;;;;;;44.42;24.77;;;;;;;2.57;78.96;102904.75;5058562;28;20045;-65
2023/01/23 10:11:48;;;;;;;46.65;25.10;;;;;;;2.99;78.58;102900.78;5061964;28;20056;-66
2023/01/23 10:14:19;;;;;;;51.30;26.08;;;;;;;3.00;78.18;102902.47;5062411;28;20495;-65
2023/01/23 10:17:26;;;;;;;49.90;25.75;;;;;;;2.79;78.04;102902.69;5062835;28;20059;-64
2023/01/23 10:19:58;;;;;;;43.13;23.75;;;;;;;2.46;79.15;102910.78;5059613;28;20057;-65
2023/01/23 10:22:35;;;;;;;46.35;25.13;;;;;;;2.64;78.77;102916.47;5059698;28;20053;-64
2023/01/23 10:25:26;;;;;;;44.10;23.95;;;;;;;2.67;79.31;102916.06;5056815;28;20056;-63
2023/01/23 10:27:59;;;;;;;44.33;24.63;;;;;;;2.72;78.60;102905.38;5066699;28;20508;-64
2023/01/23 10:30:27;;;;;;;46.55;24.48;;;;;;;2.63;78.92;102912.09;5065007;28;20060;-64
2023/01/23 10:32:57;;;;;;;51.22;25.25;;;;;;;2.65;78.63;102914.59;5066409;28;20063;-64
2023/01/23 10:35:38;;;;;;;48.72;24.77;;;;;;;2.70;78.83;102917.53;5059507;28;20064;-63
2023/01/23 10:38:47;;;;;;;45.10;24.27;;;;;;;2.90;78.29;102910.22;5062684;28;20049;-63
2023/01/23 10:41:21;;;;;;;52.20;23.38;;;;;;;2.91;77.72;102911.91;5043918;28;20049;-65
2023/01/23 10:43:52;;;;;;;47.67;25.13;;;;;;;2.75;78.63;102905.00;5037071;28;20059;-64
2023/01/23 10:46:21;;;;;;;;;;;;;;;3.12;77.77;102915.22;5062579;28;20056;-65
2023/01/23 10:48:52;;;;;;;49.15;25.23;;;;;;;2.96;77.67;102909.38;5060367;28;19931;-65
2023/01/23 10:51:25;;;;;;;46.95;24.40;;;;;;;2.66;78.98;102910.81;5060279;28;20166;-64
2023/01/23 10:54:10;;;;;;;48.40;23.90;;;;;;;2.72;79.05;102905.38;5055413;28;20073;-67
2023/01/23 10:57:01;;;;;;;44.35;24.00;;;;;;;2.77;78.46;102888.44;5067433;28;20048;-66
2023/01/23 10:59:48;;;;;;;42.53;22.83;;;;;;;2.76;78.04;102893.03;5058714;28;20048;-65
2023/01/23 11:02:20;;;;;;;39.22;21.25;;;;;;;2.47;79.41;102904.31;5068918;28;20056;-65
2023/01/23 11:04:50;;;;;;;42.20;22.15;;;;;;;2.83;78.83;102891.16;5055527;28;20059;-65
2023/01/23 11:07:29;;;;;;;43.85;22.17;;;;;;;2.96;77.72;102893.06;5067248;28;20057;-65
2023/01/23 11:10:24;;;;;;;43.47;21.98;;;;;;;2.69;78.61;102892.22;5056602;28;20171;-65
2023/01/23 11:12:54;;;;;;;45.28;23.60;;;;;;;2.70;78.34;102891.19;5054665;28;20053;-65
2023/01/23 11:15:22;;;;;;;43.88;23.98;;;;;;;2.65;78.89;102882.78;5047354;28;20615;-65
2023/01/23 11:17:51;;;;;;;47.00;23.40;;;;;;;2.82;78.46;102877.78;5046578;28;20048;-65
2023/01/23 11:20:36;;;;;;;43.97;22.70;;;;;;;2.94;77.65;102884.25;5058538;28;20053;-66
2023/01/23 11:23:04;;;;;;;43.67;23.85;;;;;;;2.99;77.28;102881.72;5060487;28;20048;-65
2023/01/23 11:25:36;;;;;;;46.85;23.60;;;;;;;3.00;77.13;102870.63;5063405;28;20049;-65
2023/01/23 11:28:26;;;;;;;45.50;23.40;;;;;;;3.30;76.17;102866.41;5055426;28;20045;-65
2023/01/23 11:30:55;;;;;;;;;;;;;;;3.06;76.70;102867.06;5064108;28;20040;-65
2023/01/23 11:33:55;;;;;;;39.30;20.92;;;;;;;3.01;76.21;102874.19;5059250;28;20019;-65
2023/01/23 11:36:35;;;;;;;41.97;21.50;;;;;;;2.95;76.87;102869.59;5055164;28;20056;-64
2023/01/23 11:39:17;;;;;;;37.30;20.60;;;;;;;3.04;76.62;102857.44;5061190;28;20052;-65
2023/01/23 11:41:45;;;;;;;39.28;21.25;;;;;;;3.35;75.68;102858.41;5061271;28;20063;-65
2023/01/23 11:44:22;;;;;;;43.88;21.98;;;;;;;3.43;74.91;102851.91;5060447;28;20048;-64